nws-alerts: Checking more than four warning/county codes can delay the loading of your pages. You should use a cron job to get the data.

Nearby METAR Reports

 

KOXC - Oxford/Waterbury, Connecticut, USA
Distance from station: NW 7mi, 11km
Updated: 05/17/2022 4:51pm
Partly cloudy
Partly cloudy
 Wind from WNW
Wind: WNW 17 mph , 28 km/h, Gust: 29 mph , 46 km/h
Temperature: 70°F , 21°C
Dew Point: 39°F , 4°C
Humidity: 33%
Barometer: 29.72 inHg , 1006.4 hPa
Clouds: Partly cloudy
Visibility: 10 miles , 16 km
Cloud details: Partly cloudy 7500 ft
2022/05/17 20:51 KOXC 172051Z 29015G25KT 10SM SCT075 21/04 A2972 RMK AO2 SLP076 T02110039 53010
KHVN - New Haven/Tweed, Connecticut, USA
Distance from station: SE 13mi, 20km
Updated: 05/17/2022 4:53pm
Partly cloudy
Partly cloudy
 Wind from NW
Wind: NW 16 mph , 26 km/h, Gust: 25 mph , 41 km/h
Temperature: 75°F , 24°C
Dew Point: 43°F , 6°C
Humidity: 31%
Barometer: 29.69 inHg , 1005.4 hPa
Clouds: Partly cloudy
Visibility: 10 miles , 16 km
Cloud details: Partly cloudy 7500 ft
2022/05/17 20:53 KHVN 172053Z 31014G22KT 10SM SCT075 24/06 A2969 RMK AO2 SLP054 T02440061 53006
 
KMMK - Meriden, Connecticut, USA
Distance from station: NE 13mi, 21km
Updated: 05/17/2022 4:53pm
Mostly cloudy
Mostly cloudy
 Wind from NW
Wind: NW 14 mph , 22 km/h, Gust: 21 mph , 33 km/h
Temperature: 72°F , 22°C
Dew Point: 37°F , 3°C
Humidity: 29%
Barometer: 29.70 inHg , 1005.8 hPa
Clouds: Mostly cloudy
Visibility: 10 miles , 16 km
Cloud details: Mostly cloudy 8500 ft
2022/05/17 20:53 KMMK 172053Z AUTO 31012G18KT 10SM BKN085 22/03 A2970 RMK AO2 SLP054 60000 T02220028 53009
KBDR - Bridgeport, Connecticut, USA
Distance from station: SSW 17mi, 27km
Updated: 05/17/2022 4:52pm
Few Clouds
Few Clouds
 Wind from W
Wind: W 15 mph , 24 km/h, Gust: 28 mph , 44 km/h
Temperature: 75°F , 24°C
Dew Point: 39°F , 4°C
Humidity: 27%
Barometer: 29.69 inHg , 1005.4 hPa
Clouds: Few Clouds
Visibility: 10 miles , 16 km
Cloud details: Few Clouds 9000 ft
2022/05/17 20:52 KBDR 172052Z 28013G24KT 10SM FEW090 24/04 A2969 RMK AO2 PK WND 27031/2017 SLP055 T02440044 53005
 
KDXR - Danbury, Connecticut, USA
Distance from station: W 23mi, 38km
Updated: 05/17/2022 4:53pm
Partly cloudy
Partly cloudy
 Wind from WNW
Wind: WNW 12 mph , 19 km/h, Gust: 24 mph , 39 km/h
Temperature: 73°F , 23°C
Dew Point: 37°F , 3°C
Humidity: 27%
Barometer: 29.73 inHg , 1006.8 hPa
Clouds: Partly cloudy
Visibility: 10 miles , 16 km
Cloud details: Partly cloudy 9000 ft
2022/05/17 20:53 KDXR 172053Z 30010G21KT 260V330 10SM SCT090 23/03 A2973 RMK AO2 SLP065 T02280028 53006